Friday, April 29, 2016, 11:52 AM EDT

KTHV, York Airport

Location: Spring Grove, PA, United States Lat: 39.917
Local Time: 11:52 AM EDT (15:52 GMT) Lon: -76.883
Time Zone: US/Eastern Elev: 478 ft

Show me the last for .
Show Decoded

2016-04-29 11:39 METAR KTHV 291539Z AUTO 11007KT 10SM FEW005 OVC013 08/07 A3007 RMK AO2 RAE00
                 P0000 T00830072 =
2016-04-29 10:53 METAR KTHV 291453Z AUTO 09006KT 3SM -RA BR BKN007 OVC013 08/07 A3006 RMK AO2
                 RAE25B43 CIG 004V009 SLP185 P0000 60004 T00780072 51001 =
2016-04-29 10:43 METAR KTHV 291443Z AUTO 07005KT 4SM -RA BR BKN007 OVC013 08/07 A3007 RMK AO2
                 RAE25B43 CIG 005V008 P0000 T00780067 =
2016-04-29 10:14 METAR KTHV 291414Z AUTO 11004KT 7SM -RA OVC010 08/07 A3007 RMK AO2 CIG 005V014
                 P0000 T00780067 =
2016-04-29 09:53 METAR KTHV 291353Z AUTO 11004KT 3SM -RA BR OVC009 07/06 A3006 RMK AO2 RAE03B30
                 CIG 005V011 SLP185 P0001 T00720061 =
2016-04-29 08:53 METAR KTHV 291253Z AUTO 09004KT 7SM -RA OVC010 07/06 A3006 RMK AO2 CIG 006V011
                 SLP185 P0003 T00720061 =
2016-04-29 08:39 METAR KTHV 291239Z AUTO 08007KT 3SM -RA BR FEW005 OVC010 07/06 A3006 RMK AO2
                 P0003 T00720061 =
2016-04-29 08:32 METAR KTHV 291232Z AUTO 08004KT 2 1/2SM RA BR OVC008 07/06 A3006 RMK AO2 CIG
                 004V011 P0002 T00720061 =
2016-04-29 08:07 METAR KTHV 291207Z AUTO 04004KT 4SM -RA BR BKN005 OVC008 07/06 A3006 RMK AO2
                 P0000 T00720061 =
2016-04-29 08:00 METAR KTHV 291200Z AUTO 04004KT 4SM -RA BR OVC004 07/06 A3006 RMK AO2 CIG
                 003V008 P0000 T00720061 =
2016-04-29 07:53 METAR KTHV 291153Z AUTO 06004KT 2 1/2SM -RA BR OVC004 07/06 A3006 RMK AO2 RAB26
                 CIG 003V008 SLP184 P0006 60010 70036 T00670061 10072 20067 53012 =
2016-04-29 07:13 METAR KTHV 291113Z AUTO 04006KT 1 3/4SM BR OVC004 07/06 A3005 RMK AO2 T00670061
                 =
2016-04-29 07:02 METAR KTHV 291102Z AUTO 07005KT 2SM BR OVC004 07/06 A3004 RMK AO2 T00670061 =
2016-04-29 06:53 METAR KTHV 291053Z AUTO 06004KT 3SM BR OVC004 07/06 A3004 RMK AO2 RAB0959E29
                 SLP178 P0004 T00670061 =
2016-04-29 06:49 METAR KTHV 291049Z AUTO 06005KT 3SM BR OVC004 07/06 A3004 RMK AO2 RAB0959E29
                 P0004 =
2016-04-29 06:22 METAR KTHV 291022Z AUTO 07004KT 4SM -RA BR BKN005 OVC013 07/06 A3003 RMK AO2
                 RAB0959 CIG 003V008 P0003 T00720061 =
2016-04-29 06:14 METAR KTHV 291014Z AUTO 07006KT 2 1/2SM RA BR OVC005 07/06 A3003 RMK AO2 RAB0959
                 CIG 003V007 P0003 T00720061 =
2016-04-29 06:08 METAR KTHV 291008Z AUTO 05005KT 3SM -RA BR OVC004 07/07 A3003 RMK AO2 RAB0959
                 CIG 003V007 P0002 T00670067 =
2016-04-29 05:53 METAR KTHV 290953Z AUTO 11003KT 2 1/2SM BR OVC004 07/06 A3003 RMK AO2 CIG
                 003V008 SLP172 T00670061 =
2016-04-29 05:44 METAR KTHV 290944Z AUTO 11003KT 2 1/2SM BR OVC004 07/06 A3003 RMK AO2 CIG
                 003V009 T00670061 =
2016-04-29 05:34 METAR KTHV 290934Z AUTO 11003KT 2SM BR OVC003 07/06 A3002 RMK AO2 T00670061 =
2016-04-29 05:21 METAR KTHV 290921Z AUTO 09005KT 2 1/2SM BR OVC003 07/06 A3002 RMK AO2 T00670061
                 =
2016-04-29 05:01 METAR KTHV 290901Z AUTO 10005KT 1 3/4SM BR BKN004 OVC010 07/06 A3002 RMK AO2 CIG
                 002V006 T00670061 =
2016-04-29 04:53 METAR KTHV 290853Z AUTO 09005KT 1 3/4SM BR BKN005 OVC008 07/06 A3002 RMK AO2 CIG
                 002V006 SLP169 T00670061 53002 =
2016-04-29 04:45 METAR KTHV 290845Z AUTO 09003KT 1 3/4SM BR OVC005 07/06 A3002 RMK AO2 CIG
                 003V008 T00670061 =
2016-04-29 04:39 METAR KTHV 290839Z AUTO 10003KT 2 1/2SM BR BKN005 OVC010 07/06 A3002 RMK AO2 CIG
                 003V007 T00670061 =
2016-04-29 04:33 METAR KTHV 290833Z AUTO 11004KT 3SM BR OVC007 07/06 A3002 RMK AO2 CIG 004V010
                 T00670061 =
2016-04-29 04:19 METAR KTHV 290819Z AUTO 10003KT 4SM BR OVC008 07/06 A3002 RMK AO2 CIG 005V010
                 T00670061 =
2016-04-29 03:53 METAR KTHV 290753Z AUTO 10005KT 4SM BR OVC006 07/06 A3002 RMK AO2 CIG 005V009
                 SLP169 T00670056 =
2016-04-29 03:18 METAR KTHV 290718Z AUTO 06006KT 4SM BR OVC006 07/06 A3000 RMK AO2 T00670056 =
2016-04-29 02:53 METAR KTHV 290653Z AUTO 06006KT 4SM BR OVC005 07/06 A3000 RMK AO2 CIG 004V008
                 SLP165 T00670056 =
2016-04-29 02:35 METAR KTHV 290635Z AUTO 06003KT 3SM BR OVC005 07/06 A3001 RMK AO2 T00670061 =
2016-04-29 02:21 METAR KTHV 290621Z AUTO 05005KT 3SM BR OVC004 07/06 A3001 RMK AO2 T00670061 =
2016-04-29 02:06 METAR KTHV 290606Z AUTO 00000KT 3SM BR BKN005 OVC011 07/06 A3001 RMK AO2 CIG
                 003V007 T00720061 =
2016-04-29 01:53 METAR KTHV 290553Z AUTO 00000KT 3SM BR OVC008 07/06 A3001 RMK AO2 CIG 004V011
                 SLP166 60001 T00720061 10072 20067 58006 =
2016-04-29 01:51 METAR KTHV 290551Z AUTO 05003KT 3SM BR OVC008 07/06 A3001 RMK AO2 CIG 004V011 =
2016-04-29 01:23 METAR KTHV 290523Z AUTO 07004KT 4SM BR BKN010 OVC019 07/06 A3001 RMK AO2
                 T00720056 =
2016-04-29 00:53 METAR KTHV 290453Z AUTO 07004KT 4SM BR FEW010 OVC021 07/06 A3002 RMK AO2
                 RAB27E41 SLP170 P0001 T00670056 401170067 =
2016-04-28 23:53 METAR KTHV 290353Z AUTO 14004KT 6SM BR FEW008 FEW012 OVC021 07/06 A3003 RMK AO2
                 SLP174 T00720056 =
2016-04-28 23:42 METAR KTHV 290342Z AUTO 15004KT 6SM BR FEW008 OVC022 07/06 A3003 RMK AO2
                 T00720056 =
2016-04-28 22:53 METAR KTHV 290253Z AUTO 11005KT 7SM BKN009 OVC022 07/06 A3003 RMK AO2 SLP171
                 T00720056 58001 =
2016-04-28 22:44 METAR KTHV 290244Z AUTO 10003KT 7SM BKN009 OVC022 07/06 A3003 RMK AO2 T00720061
                 =
2016-04-28 22:12 METAR KTHV 290212Z AUTO 09005KT 6SM BR SCT007 OVC023 07/06 A3003 RMK AO2
                 T00720061 =
2016-04-28 21:53 METAR KTHV 290153Z AUTO 09004KT 7SM SCT006 BKN014 OVC023 07/06 A3004 RMK AO2
                 SLP174 T00720061 =
2016-04-28 20:53 METAR KTHV 290053Z AUTO 09007KT 3SM BR FEW006 OVC012 07/06 A3003 RMK AO2 SLP174
                 T00720061 =
2016-04-28 20:46 METAR KTHV 290046Z AUTO 09005KT 2 1/2SM BR FEW005 OVC014 07/06 A3003 RMK AO2
                 T00720061 =
2016-04-28 20:36 METAR KTHV 290036Z AUTO 08007KT 2 1/2SM BR OVC014 07/06 A3003 RMK AO2 T00720061
                 =
2016-04-28 20:03 METAR KTHV 290003Z AUTO 09008KT 4SM BR SCT008 OVC015 07/06 A3003 RMK AO2
                 T00720061 =
2016-04-28 19:53 METAR KTHV 282353Z AUTO 10006KT 4SM BR BKN008 OVC015 07/06 A3003 RMK AO2 CIG
                 006V010 SLP173 60003 T00720061 10083 20067 53010 =
2016-04-28 19:45 METAR KTHV 282345Z AUTO 08005KT 5SM BR BKN008 OVC015 07/06 A3004 RMK AO2
                 T00720061 =
2016-04-28 19:30 METAR KTHV 282330Z AUTO 10006KT 7SM FEW008 OVC016 07/06 A3002 RMK AO2 T00720056
                 =
2016-04-28 19:12 METAR KTHV 282312Z AUTO 09008KT 7SM OVC016 07/06 A3001 RMK AO2 T00720061 =
2016-04-28 19:01 METAR KTHV 282301Z AUTO 08008KT 8SM FEW006 BKN010 OVC016 07/06 A3001 RMK AO2 CIG
                 007V012 T00720056 =
2016-04-28 18:53 METAR KTHV 282253Z AUTO 09008KT 5SM BR BKN006 OVC012 07/06 A3001 RMK AO2 CIG
                 004V009 SLP165 T00720056 =
2016-04-28 18:49 METAR KTHV 282249Z AUTO 08011KT 3SM BR BKN006 OVC012 07/06 A3001 RMK AO2 CIG
                 004V008 =
2016-04-28 18:37 METAR KTHV 282237Z AUTO 07009KT 2SM BR BKN006 OVC010 07/06 A3001 RMK AO2
                 T00720061 =
2016-04-28 18:26 METAR KTHV 282226Z AUTO 06007KT 5SM BR BKN007 BKN011 OVC019 08/07 A3000 RMK AO2
                 T00780067 =
2016-04-28 18:02 METAR KTHV 282202Z AUTO 07006KT 6SM BR SCT004 OVC019 08/07 A3000 RMK AO2
                 T00780067 =
2016-04-28 17:57 METAR KTHV 282157Z AUTO 07006KT 2 1/2SM BR BKN004 BKN012 OVC017 08/07 A3000 RMK
                 AO2 CIG 003V008 T00780067 =
2016-04-28 17:53 METAR KTHV 282153Z AUTO 08004KT 1 1/2SM BR BKN004 BKN009 OVC014 08/07 A3001 RMK
                 AO2 SLP164 T00780067 =
2016-04-28 17:43 METAR KTHV 282143Z AUTO 06005KT 1 1/2SM BR OVC004 08/07 A3000 RMK AO2 CIG
                 003V008 T00780067 =
2016-04-28 17:35 METAR KTHV 282135Z AUTO 06006KT 1 1/2SM BR OVC005 08/07 A3001 RMK AO2 CIG
                 003V008 T00780072 =
2016-04-28 17:25 METAR KTHV 282125Z AUTO 06005KT 2SM BR OVC005 08/07 A3001 RMK AO2 T00780067 =
2016-04-28 17:14 METAR KTHV 282114Z AUTO 06006KT 1 3/4SM BR OVC005 08/07 A3001 RMK AO2 T00780067
                 =
2016-04-28 17:05 METAR KTHV 282105Z AUTO 05005KT 2SM BR OVC005 07/07 A3001 RMK AO2 T00720067 =
2016-04-28 16:53 METAR KTHV 282053Z AUTO 05006KT 1 3/4SM BR OVC005 07/06 A3000 RMK AO2 RAE07
                 SLP163 P0000 60003 T00720061 56007 =
2016-04-28 16:21 METAR KTHV 282021Z AUTO 05006KT 1 3/4SM BR OVC005 07/06 A3001 RMK AO2 RAE07 CIG
                 003V007 P0000 T00720061 =
2016-04-28 16:10 METAR KTHV 282010Z AUTO 04008KT 2SM BR OVC004 07/06 A3000 RMK AO2 RAE07 P0000
                 T00720061 =
2016-04-28 15:53 METAR KTHV 281953Z AUTO 05006KT 1 1/4SM -RA BR OVC005 07/06 A3000 RMK AO2
                 RAB03E17B39 SLP164 P0002 T00670061 =
2016-04-28 15:23 METAR KTHV 281923Z AUTO 05006KT 1 1/2SM BR OVC007 07/06 A3001 RMK AO2 RAB03E17
                 P0001 T00670056 =
2016-04-28 15:12 METAR KTHV 281912Z AUTO 05008KT 2SM -RA BR BKN006 OVC013 07/06 A3001 RMK AO2
                 RAB03 CIG 005V010 P0001 T00670056 =
2016-04-28 15:03 METAR KTHV 281903Z AUTO 05006KT 2SM -RA BR BKN008 OVC015 07/06 A3001 RMK AO2
                 RAB03 CIG 005V012 P0000 T00720056 =
2016-04-28 14:53 METAR KTHV 281853Z AUTO 03005KT 2 1/2SM BR SCT008 OVC016 07/06 A3002 RMK AO2
                 RAE38 SLP169 P0001 T00720056 =
2016-04-28 14:41 METAR KTHV 281841Z AUTO 03007KT 3SM BR SCT008 OVC016 07/06 A3001 RMK AO2 RAE38
                 P0001 T00720056 =
2016-04-28 14:20 METAR KTHV 281820Z AUTO 02006KT 2SM -RA BR SCT008 OVC020 07/06 A3002 RMK AO2
                 P0001 T00720056 =
2016-04-28 14:12 METAR KTHV 281812Z AUTO 01005KT 2SM -RA BR BKN021 OVC027 07/06 A3003 RMK AO2
                 P0001 T00720056 =
2016-04-28 14:04 METAR KTHV 281804Z AUTO 01006KT 2 1/2SM -RA BR BKN021 OVC027 07/05 A3002 RMK AO2
                 P0001 T00720050 =
2016-04-28 13:53 METAR KTHV 281753Z AUTO 01006KT 5SM -RA OVC026 08/05 A3002 RMK AO2 RAE18B50
                 SLP170 P0002 60022 T00780050 10111 20078 50003 =
2016-04-28 13:43 METAR KTHV 281743Z AUTO 02005KT 10SM BKN028 OVC035 08/05 A3002 RMK AO2 RAE18
                 P0002 T00780050 =
2016-04-28 13:05 METAR KTHV 281705Z AUTO 02005KT 3SM -RA BR OVC037 08/06 A3002 RMK AO2 P0002
                 T00780056 =
2016-04-28 12:59 METAR KTHV 281659Z AUTO 36006KT 2SM RA BR OVC037 08/06 A3003 RMK AO2 P0002
                 T00780056 =
2016-04-28 12:53 METAR KTHV 281653Z AUTO 04005KT 4SM RA OVC037 08/05 A3003 RMK AO2 SLP172 P0010
                 T00830050 =
2016-04-28 12:22 METAR KTHV 281622Z AUTO 08005KT 4SM -RA BKN041 BKN060 OVC085 08/05 A3002 RMK AO2
                 P0007 T00830050 =
2016-04-28 12:15 METAR KTHV 281615Z AUTO 08006KT 2 1/2SM RA BKN041 BKN060 OVC085 08/05 A3001 RMK
                 AO2 PRESFR P0006 T00830050 =
2016-04-28 11:53 METAR KTHV 281553Z AUTO 10004KT 3SM RA OVC043 08/04 A3004 RMK AO2 RAB1456 SLP175
                 P0010 T00830044 =

Support USWX by starting your Amazon purchase here.